createdAt,value
2023-03-27T00:00:16.109Z,3.88
2023-03-27T00:03:00.238Z,4.20
2023-03-27T00:05:32.265Z,3.30
2023-03-27T00:08:04.098Z,3.25
2023-03-27T00:10:36.427Z,4.35
2023-03-27T00:13:09.260Z,4.22
2023-03-27T00:15:41.923Z,4.28
2023-03-27T00:18:12.826Z,4.13
2023-03-27T00:20:44.659Z,3.85
2023-03-27T00:23:15.324Z,3.42
2023-03-27T00:25:46.238Z,3.85
2023-03-27T00:28:18.778Z,3.47
2023-03-27T00:30:51.708Z,3.63
2023-03-27T00:33:22.714Z,4.18
2023-03-27T00:35:55.232Z,3.85
2023-03-27T00:38:29.162Z,3.30
2023-03-27T00:41:00.578Z,3.40
2023-03-27T00:43:38.677Z,3.80
2023-03-27T00:46:33.557Z,3.67
2023-03-27T00:49:08.652Z,3.70
2023-03-27T00:51:41.315Z,3.33
2023-03-27T00:54:13.596Z,3.40
2023-03-27T00:56:45.830Z,3.42
2023-03-27T00:59:23.839Z,4.05
2023-03-27T01:01:56.591Z,3.30
2023-03-27T01:04:27.838Z,3.70
2023-03-27T01:07:01.537Z,3.63
2023-03-27T01:09:32.398Z,3.95
2023-03-27T01:12:08.876Z,3.47
2023-03-27T01:15:04.009Z,3.78
2023-03-27T01:18:17.903Z,3.20
2023-03-27T01:21:08.969Z,3.33
2023-03-27T01:23:59.438Z,3.83
2023-03-27T01:26:55.395Z,3.67
2023-03-27T01:29:48.886Z,4.20
2023-03-27T01:32:37.479Z,3.10
2023-03-27T01:35:26.463Z,4.25
2023-03-27T01:38:30.529Z,3.42
2023-03-27T01:41:16.841Z,3.70
2023-03-27T01:43:58.475Z,3.33
2023-03-27T01:46:39.699Z,3.88
2023-03-27T01:49:33.526Z,3.65
2023-03-27T01:52:09.118Z,4.10
2023-03-27T01:54:46.380Z,3.97
2023-03-27T01:57:25.107Z,3.58
2023-03-27T02:00:18.040Z,3.33
2023-03-27T02:03:29.998Z,3.53
2023-03-27T02:06:19.284Z,4.50
2023-03-27T02:08:51.586Z,3.83
2023-03-27T02:11:23.831Z,3.58
2023-03-27T02:14:04.427Z,3.92
2023-03-27T02:16:45.757Z,3.72
2023-03-27T02:19:40.648Z,3.92
2023-03-27T02:22:11.960Z,3.70
2023-03-27T02:24:44.062Z,4.07
2023-03-27T02:27:29.011Z,4.32
2023-03-27T02:30:07.727Z,4.25
2023-03-27T02:33:17.943Z,3.72
2023-03-27T02:36:08.355Z,3.72
2023-03-27T02:38:57.320Z,3.90
2023-03-27T02:41:34.258Z,3.88
2023-03-27T02:44:46.493Z,3.65
2023-03-27T02:47:39.349Z,3.35
2023-03-27T02:50:21.689Z,3.42
2023-03-27T02:52:56.576Z,3.08
2023-03-27T02:55:32.538Z,3.15
2023-03-27T02:58:10.213Z,2.78
2023-03-27T03:00:50.356Z,3.15
2023-03-27T03:03:22.054Z,3.15
2023-03-27T03:05:55.991Z,2.85
2023-03-27T03:08:32.459Z,3.20
2023-03-27T03:13:35.680Z,2.97
2023-03-27T03:16:07.719Z,2.78
2023-03-27T03:18:38.378Z,3.15
2023-03-27T03:21:09.286Z,2.90
2023-03-27T03:23:41.206Z,3.13
2023-03-27T03:26:29.339Z,2.30
2023-03-27T03:29:03.226Z,2.17
2023-03-27T03:31:46.152Z,2.60
2023-03-27T03:34:21.368Z,2.03
2023-03-27T03:36:52.815Z,2.22
2023-03-27T03:39:23.721Z,2.38
2023-03-27T03:41:54.683Z,2.45
2023-03-27T03:44:25.791Z,2.58
2023-03-27T03:46:57.040Z,2.13
2023-03-27T03:49:27.931Z,2.50
2023-03-27T03:52:04.240Z,2.28
2023-03-27T03:54:35.814Z,1.85
2023-03-27T03:57:08.570Z,2.60
2023-03-27T03:59:39.671Z,1.95
2023-03-27T04:02:14.450Z,1.77
2023-03-27T04:04:46.642Z,1.33
2023-03-27T04:07:19.484Z,0.93
2023-03-27T04:09:50.348Z,1.35
2023-03-27T04:12:21.719Z,0.98
2023-03-27T04:14:54.732Z,1.00
2023-03-27T04:17:29.684Z,0.95
2023-03-27T04:20:07.595Z,1.23
2023-03-27T04:22:40.071Z,0.98
2023-03-27T04:25:12.511Z,0.85
2023-03-27T04:27:45.029Z,1.10
2023-03-27T04:30:16.248Z,1.33
2023-03-27T04:32:46.673Z,1.40
2023-03-27T04:35:18.499Z,1.20
2023-03-27T04:37:51.690Z,1.13
2023-03-27T04:40:23.034Z,1.30
2023-03-27T04:42:53.834Z,1.00
2023-03-27T04:45:29.633Z,1.20
2023-03-27T04:48:00.952Z,0.90
2023-03-27T04:50:31.627Z,1.08
2023-03-27T04:53:04.358Z,0.82
2023-03-27T04:55:41.224Z,0.70
2023-03-27T04:58:12.238Z,0.82
2023-03-27T05:00:43.532Z,0.68
2023-03-27T05:03:15.930Z,0.80
2023-03-27T05:05:50.279Z,0.85
2023-03-27T05:08:27.641Z,0.80
2023-03-27T05:10:58.925Z,0.50
2023-03-27T05:13:31.226Z,0.77
2023-03-27T05:16:04.035Z,0.90
2023-03-27T05:18:35.029Z,0.70
2023-03-27T05:21:05.895Z,1.02
2023-03-27T05:23:36.583Z,1.08
2023-03-27T05:26:07.940Z,0.70
2023-03-27T05:28:39.210Z,0.63
2023-03-27T05:31:12.924Z,0.80
2023-03-27T05:33:44.853Z,1.00
2023-03-27T05:36:17.594Z,0.93
2023-03-27T05:38:50.548Z,0.65
2023-03-27T05:41:22.969Z,0.95
2023-03-27T05:43:53.871Z,0.90
2023-03-27T05:46:24.812Z,0.98
2023-03-27T05:48:55.714Z,1.00
2023-03-27T05:51:29.918Z,0.90
2023-03-27T05:54:01.883Z,0.90
2023-03-27T05:56:34.844Z,0.75
2023-03-27T05:59:10.218Z,0.93
2023-03-27T06:01:42.145Z,1.38
2023-03-27T06:04:13.220Z,0.80
2023-03-27T06:06:44.086Z,0.88
2023-03-27T06:09:18.354Z,0.80
2023-03-27T06:11:49.299Z,0.80
2023-03-27T06:14:20.051Z,0.95
2023-03-27T06:16:51.520Z,0.88
2023-03-27T06:19:22.001Z,0.90
2023-03-27T06:21:53.784Z,0.85
2023-03-27T06:24:25.687Z,0.80
2023-03-27T06:26:56.176Z,0.82
2023-03-27T06:29:32.013Z,1.23
2023-03-27T06:32:04.284Z,0.80
2023-03-27T06:34:35.805Z,0.95
2023-03-27T06:37:06.930Z,1.55
2023-03-27T06:39:40.617Z,1.20
2023-03-27T06:42:12.461Z,1.00
2023-03-27T06:44:43.513Z,1.13
2023-03-27T06:47:15.028Z,0.90
2023-03-27T06:49:50.066Z,1.20
2023-03-27T06:52:22.002Z,0.77
2023-03-27T06:54:53.904Z,0.98
2023-03-27T06:57:24.837Z,0.80
2023-03-27T06:59:56.725Z,0.88
2023-03-27T07:02:34.132Z,0.85
2023-03-27T07:05:07.417Z,0.55
2023-03-27T07:07:41.423Z,0.90
2023-03-27T07:10:14.095Z,1.10
2023-03-27T07:12:49.517Z,1.25
2023-03-27T07:15:21.530Z,1.02
2023-03-27T07:18:08.927Z,0.85
2023-03-27T07:20:41.456Z,0.90
2023-03-27T07:23:13.586Z,1.58
2023-03-27T07:25:44.433Z,0.80
2023-03-27T07:28:18.800Z,0.75
2023-03-27T07:30:50.801Z,0.80
2023-03-27T07:33:22.308Z,0.60
2023-03-27T07:35:54.423Z,0.70
2023-03-27T07:38:35.298Z,0.70
2023-03-27T07:41:12.062Z,0.70
2023-03-27T07:43:43.204Z,1.52
2023-03-27T07:46:14.236Z,0.63
2023-03-27T07:48:45.078Z,0.60
2023-03-27T07:51:16.747Z,0.70
2023-03-27T07:53:47.630Z,0.80
2023-03-27T07:56:18.389Z,0.60
2023-03-27T07:58:49.593Z,1.00
2023-03-27T08:01:20.014Z,1.13
2023-03-27T08:03:50.955Z,0.80
2023-03-27T08:06:22.313Z,0.88
2023-03-27T08:08:55.283Z,0.50
2023-03-27T08:11:30.627Z,0.50
2023-03-27T08:14:01.842Z,0.70
2023-03-27T08:16:32.426Z,0.60
2023-03-27T08:19:05.203Z,0.60
2023-03-27T08:21:40.235Z,0.60
2023-03-27T08:24:11.779Z,0.70
2023-03-27T08:26:42.291Z,0.60
2023-03-27T08:29:12.910Z,0.57
2023-03-27T08:31:45.252Z,0.60
2023-03-27T08:34:16.768Z,0.50
2023-03-27T08:36:47.508Z,0.57
2023-03-27T08:39:19.097Z,0.80
2023-03-27T08:41:56.865Z,0.80
2023-03-27T08:44:29.225Z,1.10
2023-03-27T08:47:12.065Z,0.55
2023-03-27T08:49:53.357Z,0.80
2023-03-27T08:52:34.000Z,0.40
2023-03-27T08:55:11.556Z,0.50
2023-03-27T08:57:45.574Z,0.55
2023-03-27T09:00:40.237Z,0.50
2023-03-27T09:03:41.045Z,0.60
2023-03-27T09:06:26.662Z,0.63
2023-03-27T09:09:32.400Z,0.73
2023-03-27T09:12:16.158Z,0.40
2023-03-27T09:15:17.478Z,0.60
2023-03-27T09:18:00.323Z,0.70
2023-03-27T09:20:43.080Z,0.60
2023-03-27T09:23:27.564Z,0.80
2023-03-27T09:26:05.823Z,0.70
2023-03-27T09:29:02.575Z,0.47
2023-03-27T09:31:48.435Z,0.50
2023-03-27T09:34:31.302Z,0.50
2023-03-27T09:37:20.478Z,0.57
2023-03-27T09:39:56.986Z,0.60
2023-03-27T09:42:46.405Z,0.52
2023-03-27T09:45:24.063Z,0.70
2023-03-27T09:48:17.390Z,0.50
2023-03-27T09:50:55.869Z,0.52
2023-03-27T09:53:31.744Z,0.60
2023-03-27T09:56:12.127Z,0.50
2023-03-27T09:58:54.182Z,0.60
2023-03-27T10:01:39.896Z,0.60
2023-03-27T10:04:25.862Z,0.80
2023-03-27T10:07:13.044Z,0.60
2023-03-27T10:09:44.984Z,0.45
2023-03-27T10:12:25.830Z,0.77
2023-03-27T10:14:56.910Z,1.00
2023-03-27T10:17:42.595Z,0.70
2023-03-27T10:20:21.429Z,0.80
2023-03-27T10:23:03.938Z,1.05
2023-03-27T10:25:41.894Z,0.80
2023-03-27T10:28:22.616Z,1.20
2023-03-27T10:31:30.597Z,1.17
2023-03-27T10:34:05.557Z,1.27
2023-03-27T10:36:41.790Z,0.82
2023-03-27T10:39:20.935Z,1.30
2023-03-27T10:41:53.156Z,1.17
2023-03-27T10:44:28.038Z,0.90
2023-03-27T10:46:59.023Z,1.00
2023-03-27T10:49:49.355Z,1.35
2023-03-27T10:52:39.162Z,1.23
2023-03-27T10:55:18.857Z,1.05
2023-03-27T10:57:56.486Z,1.10
2023-03-27T11:00:34.856Z,1.73
2023-03-27T11:03:13.802Z,0.98
2023-03-27T11:05:50.084Z,0.82
2023-03-27T11:08:49.721Z,0.95
2023-03-27T11:11:39.149Z,1.95
2023-03-27T11:14:22.734Z,1.20
2023-03-27T11:17:06.118Z,1.10
2023-03-27T11:19:37.003Z,1.25
2023-03-27T11:22:17.337Z,0.90
2023-03-27T11:24:56.661Z,1.10
2023-03-27T11:28:02.095Z,1.63
2023-03-27T11:30:38.705Z,1.00
2023-03-27T11:36:25.944Z,0.88
2023-03-27T11:39:09.002Z,1.10
2023-03-27T11:41:39.721Z,0.80
2023-03-27T11:44:15.156Z,1.25
2023-03-27T11:46:53.840Z,0.70
2023-03-27T11:49:43.057Z,1.00
2023-03-27T11:52:16.301Z,0.95
2023-03-27T11:55:11.808Z,1.05
2023-03-27T11:58:21.248Z,0.75
2023-03-27T12:01:10.266Z,0.90
2023-03-27T12:04:14.394Z,1.17
2023-03-27T12:07:04.973Z,0.80
2023-03-27T12:09:54.631Z,1.45
2023-03-27T12:12:34.373Z,1.00
2023-03-27T12:15:17.150Z,0.93
2023-03-27T12:18:06.880Z,0.88
2023-03-27T12:20:53.687Z,0.88
2023-03-27T12:23:44.597Z,1.58
2023-03-27T12:26:53.989Z,1.13
2023-03-27T12:29:38.826Z,0.93
2023-03-27T12:32:47.309Z,1.15
2023-03-27T12:35:30.184Z,0.90
2023-03-27T12:38:04.598Z,0.80
2023-03-27T12:41:02.783Z,0.73
2023-03-27T12:43:45.871Z,1.00
2023-03-27T12:46:31.247Z,1.00
2023-03-27T12:49:31.572Z,0.98
2023-03-27T12:52:09.927Z,0.90
2023-03-27T12:54:43.353Z,1.10
2023-03-27T12:57:24.637Z,0.95
2023-03-27T13:00:00.910Z,0.98
2023-03-27T13:02:47.040Z,0.98
2023-03-27T13:05:27.897Z,1.10
2023-03-27T13:08:36.165Z,1.05
2023-03-27T13:11:34.491Z,0.93
2023-03-27T13:14:26.742Z,1.35
2023-03-27T13:17:17.090Z,1.10
2023-03-27T13:20:19.823Z,1.30
2023-03-27T13:23:15.647Z,1.00
2023-03-27T13:26:11.719Z,1.08
2023-03-27T13:28:51.710Z,0.73
2023-03-27T13:31:54.631Z,0.80
2023-03-27T13:35:04.552Z,0.93
2023-03-27T13:37:39.066Z,1.08
2023-03-27T13:40:33.687Z,1.13
2023-03-27T13:43:37.377Z,0.82
2023-03-27T13:46:10.204Z,1.40
2023-03-27T13:49:03.156Z,0.90
2023-03-27T13:51:52.592Z,1.10
2023-03-27T13:54:42.512Z,0.98
2023-03-27T13:57:34.242Z,0.90
2023-03-27T14:00:26.273Z,1.00
2023-03-27T14:03:33.932Z,0.80
2023-03-27T14:06:16.893Z,0.90
2023-03-27T14:09:09.798Z,0.95
2023-03-27T14:11:54.558Z,0.73
2023-03-27T14:14:41.889Z,1.10
2023-03-27T14:17:44.247Z,0.80
2023-03-27T14:20:27.747Z,0.80
2023-03-27T14:23:00.819Z,0.70
2023-03-27T14:25:45.919Z,0.75
2023-03-27T14:28:38.533Z,0.80
2023-03-27T14:31:10.942Z,0.75
2023-03-27T14:33:50.724Z,1.02
2023-03-27T14:36:28.158Z,1.00
2023-03-27T14:39:22.695Z,1.00
2023-03-27T14:41:58.187Z,0.95
2023-03-27T14:44:33.029Z,1.00
2023-03-27T14:47:15.410Z,0.77
2023-03-27T14:49:51.337Z,0.90
2023-03-27T14:52:31.267Z,1.25
2023-03-27T14:55:03.180Z,1.30
2023-03-27T14:57:35.261Z,1.15
2023-03-27T15:00:09.075Z,0.98
2023-03-27T15:02:42.325Z,0.90
2023-03-27T15:05:27.798Z,0.90
2023-03-27T15:07:58.529Z,0.82
2023-03-27T15:10:34.294Z,1.00
2023-03-27T15:13:06.206Z,1.00
2023-03-27T15:15:49.038Z,0.98
2023-03-27T15:18:34.510Z,1.17
2023-03-27T15:21:16.439Z,1.02
2023-03-27T15:24:09.610Z,0.85
2023-03-27T15:26:41.928Z,1.65
2023-03-27T15:29:42.869Z,0.95
2023-03-27T15:32:20.970Z,1.13
2023-03-27T15:34:58.852Z,1.15
2023-03-27T15:37:31.090Z,1.45
2023-03-27T15:40:25.547Z,1.25
2023-03-27T15:43:07.709Z,0.88
2023-03-27T15:46:05.522Z,1.13
2023-03-27T15:48:40.083Z,1.48
2023-03-27T15:51:31.599Z,1.25
2023-03-27T15:54:22.174Z,0.77
2023-03-27T15:56:53.114Z,0.75
2023-03-27T15:59:51.268Z,0.80
2023-03-27T16:02:27.829Z,0.95
2023-03-27T16:05:01.492Z,0.90
2023-03-27T16:07:47.840Z,1.25
2023-03-27T16:10:34.952Z,1.00
2023-03-27T16:13:08.563Z,1.17
2023-03-27T16:15:44.246Z,1.23
2023-03-27T16:18:31.017Z,1.20
2023-03-27T16:21:18.828Z,1.15
2023-03-27T16:23:49.737Z,0.93
2023-03-27T16:26:29.470Z,0.80
2023-03-27T16:29:04.230Z,1.23
2023-03-27T16:31:34.984Z,0.95
2023-03-27T16:34:12.430Z,0.98
2023-03-27T16:36:58.284Z,0.93
2023-03-27T16:39:29.978Z,1.30
2023-03-27T16:42:01.808Z,1.27
2023-03-27T16:44:32.508Z,1.05
2023-03-27T16:47:03.273Z,1.10
2023-03-27T16:49:34.816Z,1.20
2023-03-27T16:52:14.506Z,1.08
2023-03-27T16:54:45.666Z,0.85
2023-03-27T16:57:18.397Z,1.05
2023-03-27T16:59:57.172Z,1.55
2023-03-27T17:02:31.326Z,1.00
2023-03-27T17:05:05.894Z,1.05
2023-03-27T17:07:36.867Z,1.00
2023-03-27T17:10:09.814Z,1.65
2023-03-27T17:12:40.818Z,1.30
2023-03-27T17:15:12.500Z,1.00
2023-03-27T17:17:43.546Z,1.23
2023-03-27T17:20:15.301Z,1.27
2023-03-27T17:22:48.425Z,1.30
2023-03-27T17:25:19.813Z,1.40
2023-03-27T17:27:50.523Z,0.98
2023-03-27T17:30:34.703Z,1.27
2023-03-27T17:33:09.342Z,1.15
2023-03-27T17:35:44.130Z,1.25
2023-03-27T17:38:16.993Z,1.10
2023-03-27T17:40:48.656Z,1.27
2023-03-27T17:43:20.320Z,1.33
2023-03-27T17:45:53.200Z,1.10
2023-03-27T17:48:24.155Z,1.40
2023-03-27T17:51:05.602Z,1.20
2023-03-27T17:53:41.310Z,1.10
2023-03-27T17:56:17.165Z,1.20
2023-03-27T17:58:50.874Z,1.00
2023-03-27T18:01:24.076Z,1.35
2023-03-27T18:03:55.887Z,1.65
2023-03-27T18:06:26.966Z,1.50
2023-03-27T18:08:58.044Z,1.40
2023-03-27T18:11:28.906Z,1.98
2023-03-27T18:13:59.256Z,1.60
2023-03-27T18:16:29.795Z,1.67
2023-03-27T18:19:00.683Z,1.45
2023-03-27T18:21:32.274Z,1.40
2023-03-27T18:24:03.411Z,1.27
2023-03-27T18:26:33.718Z,1.25
2023-03-27T18:29:04.373Z,1.75
2023-03-27T18:31:35.253Z,1.60
2023-03-27T18:34:06.109Z,1.63
2023-03-27T18:36:36.447Z,1.13
2023-03-27T18:39:08.168Z,1.35
2023-03-27T18:41:39.753Z,2.15
2023-03-27T18:44:10.054Z,1.30
2023-03-27T18:46:41.064Z,1.42
2023-03-27T18:49:23.753Z,1.40
2023-03-27T18:51:55.084Z,2.17
2023-03-27T18:54:25.747Z,1.50
2023-03-27T18:56:56.213Z,1.50
2023-03-27T18:59:26.636Z,2.28
2023-03-27T19:01:57.196Z,1.98
2023-03-27T19:04:27.903Z,1.60
2023-03-27T19:06:58.673Z,1.30
2023-03-27T19:09:41.060Z,1.65
2023-03-27T19:12:15.954Z,1.60
2023-03-27T19:14:46.364Z,1.50
2023-03-27T19:17:16.886Z,1.58
2023-03-27T19:19:48.206Z,1.95
2023-03-27T19:22:18.686Z,1.73
2023-03-27T19:24:49.282Z,1.60
2023-03-27T19:27:24.163Z,1.45
2023-03-27T19:29:55.856Z,1.98
2023-03-27T19:32:26.650Z,1.50
2023-03-27T19:34:57.006Z,1.70
2023-03-27T19:37:27.787Z,1.70
2023-03-27T19:39:58.124Z,1.50
2023-03-27T19:42:30.171Z,1.40
2023-03-27T19:45:00.529Z,1.75
2023-03-27T19:47:31.018Z,1.63
2023-03-27T19:50:01.444Z,1.58
2023-03-27T19:52:32.029Z,1.77
2023-03-27T19:55:02.512Z,2.05
2023-03-27T19:57:33.082Z,2.20
2023-03-27T20:00:03.308Z,1.48
2023-03-27T20:02:33.652Z,1.92
2023-03-27T20:05:03.972Z,1.52
2023-03-27T20:07:34.868Z,1.98
2023-03-27T20:10:05.413Z,1.98
2023-03-27T20:12:39.722Z,2.00
2023-03-27T20:15:12.095Z,1.95
2023-03-27T20:17:44.104Z,2.08
2023-03-27T20:20:14.837Z,2.53
2023-03-27T20:22:56.940Z,1.88
2023-03-27T20:25:31.530Z,2.00
2023-03-27T20:28:06.565Z,1.98
2023-03-27T20:30:42.731Z,1.98
2023-03-27T20:33:13.414Z,2.00
2023-03-27T20:35:44.322Z,1.75
2023-03-27T20:38:15.652Z,2.20
2023-03-27T20:40:53.556Z,1.67
2023-03-27T20:43:24.500Z,1.90
2023-03-27T20:45:56.767Z,1.60
2023-03-27T20:48:28.819Z,1.73
2023-03-27T20:50:59.894Z,1.80
2023-03-27T20:53:34.233Z,1.90
2023-03-27T20:56:06.331Z,2.10
2023-03-27T20:58:41.797Z,1.67
2023-03-27T21:01:13.487Z,2.30
2023-03-27T21:03:47.831Z,2.10
2023-03-27T21:06:23.797Z,2.15
2023-03-27T21:08:54.151Z,1.90
2023-03-27T21:11:25.016Z,2.03
2023-03-27T21:13:55.551Z,1.90
2023-03-27T21:16:26.096Z,1.95
2023-03-27T21:18:56.630Z,2.22
2023-03-27T21:21:28.388Z,2.67
2023-03-27T21:23:58.926Z,2.03
2023-03-27T21:26:32.306Z,1.63
2023-03-27T21:29:02.867Z,2.30
2023-03-27T21:31:33.764Z,1.90
2023-03-27T21:34:04.256Z,1.60
2023-03-27T21:36:34.674Z,1.88
2023-03-27T21:39:05.033Z,1.90
2023-03-27T21:41:35.944Z,1.52
2023-03-27T21:44:06.359Z,2.05
2023-03-27T21:46:36.723Z,2.35
2023-03-27T21:49:07.628Z,1.77
2023-03-27T21:51:38.010Z,1.70
2023-03-27T21:54:08.914Z,1.80
2023-03-27T21:56:39.676Z,1.75
2023-03-27T21:59:10.074Z,1.85
2023-03-27T22:01:40.870Z,1.45
2023-03-27T22:04:11.517Z,1.48
2023-03-27T22:06:41.971Z,1.92
2023-03-27T22:09:12.262Z,1.30
2023-03-27T22:11:43.018Z,1.70
2023-03-27T22:14:13.395Z,1.70
2023-03-27T22:16:45.070Z,1.20
2023-03-27T22:19:15.442Z,1.23
2023-03-27T22:21:45.729Z,1.30
2023-03-27T22:24:16.060Z,1.40
2023-03-27T22:26:49.907Z,1.00
2023-03-27T22:29:20.728Z,1.27
2023-03-27T22:31:50.962Z,1.20
2023-03-27T22:34:21.205Z,1.27
2023-03-27T22:36:51.903Z,1.27
2023-03-27T22:39:22.402Z,1.25
2023-03-27T22:41:53.105Z,1.10
2023-03-27T22:44:24.200Z,1.35
2023-03-27T22:46:56.624Z,1.02
2023-03-27T22:49:28.699Z,1.00
2023-03-27T22:51:59.425Z,1.00
2023-03-27T22:54:30.252Z,1.13
2023-03-27T22:57:03.380Z,1.35
2023-03-27T22:59:34.065Z,1.48
2023-03-27T23:02:04.823Z,1.00
2023-03-27T23:04:35.809Z,1.10
2023-03-27T23:07:06.531Z,1.13
2023-03-27T23:09:37.333Z,1.00
2023-03-27T23:12:08.585Z,1.15
2023-03-27T23:14:40.752Z,1.27
2023-03-27T23:17:11.492Z,1.30
2023-03-27T23:19:42.573Z,1.00
2023-03-27T23:22:13.513Z,0.80
2023-03-27T23:24:44.279Z,1.08
2023-03-27T23:27:15.030Z,0.90
2023-03-27T23:29:46.364Z,0.85
2023-03-27T23:32:17.142Z,0.90
2023-03-27T23:34:47.447Z,1.10
2023-03-27T23:37:17.909Z,0.88
2023-03-27T23:39:48.485Z,1.20
2023-03-27T23:42:19.234Z,1.00
2023-03-27T23:44:49.553Z,1.20
2023-03-27T23:47:19.983Z,1.42
2023-03-27T23:49:50.502Z,1.05
2023-03-27T23:52:20.757Z,1.00
2023-03-27T23:54:51.101Z,1.00
2023-03-27T23:57:21.420Z,1.45
2023-03-27T23:59:51.764Z,0.85
